Time;durP1;ratioP1;P1;durP2;ratioP2;P2;SDS_P1;SDS_P2;PMS_P1;PMS_P2;Temp;Humidity;BMP_temperature;BMP_pressure;BME280_temperature;BME280_humidity;BME280_pressure;Samples;Min_cycle;Max_cycle;Signal;HPM_P1;HPM_P2
2022/11/25 00:03:00;;;;;;;78.20;40.10;;;;;;;-0.75;97.70;99397.03;421164;1279;145749;-71
2022/11/25 00:13:06;;;;;;;92.20;41.30;;;;;;;-0.76;97.98;99399.27;421135;1281;140995;-70
2022/11/25 00:23:11;;;;;;;90.70;41.20;;;;;;;-0.73;98.19;99396.45;425151;1288;146159;-70
2022/11/25 00:33:17;;;;;;;88.00;41.60;;;;;;;-0.69;98.18;99391.38;425685;1278;143700;-70
2022/11/25 00:53:46;;;;;;;97.80;42.80;;;;;;;-0.73;98.27;99394.39;426161;1279;143205;-68
2022/11/25 01:03:52;;;;;;;96.00;43.10;;;;;;;-0.70;98.89;99399.48;422184;1288;142590;-67
2022/11/25 01:13:58;;;;;;;84.50;38.70;;;;;;;-0.73;98.69;99407.28;428232;1285;144169;-67
2022/11/25 01:24:07;;;;;;;97.00;41.40;;;;;;;-0.66;99.12;99407.85;423760;1282;143816;-67
2022/11/25 01:34:16;;;;;;;91.30;43.60;;;;;;;-0.62;99.20;99422.02;426067;1280;142068;-67
2022/11/25 01:44:24;;;;;;;82.80;41.60;;;;;;;-0.60;99.12;99436.08;424384;1279;143378;-69
2022/11/25 01:54:34;;;;;;;86.50;37.80;;;;;;;-0.56;99.23;99440.98;420952;1279;146106;-67
2022/11/25 02:04:43;;;;;;;82.20;37.00;;;;;;;-0.53;98.95;99436.11;420623;1279;155238;-66
2022/11/25 02:14:50;;;;;;;84.40;37.70;;;;;;;-0.53;98.97;99432.67;422950;1273;143217;-66
2022/11/25 02:25:02;;;;;;;91.20;39.30;;;;;;;-0.57;99.16;99436.70;421412;1286;143004;-67
2022/11/25 02:35:30;;;;;;;71.80;34.80;;;;;;;-0.59;99.37;99443.80;420285;1280;142310;-65
2022/11/25 02:45:43;;;;;;;94.10;39.10;;;;;;;-0.58;99.31;99438.96;428883;1286;143271;-65
2022/11/25 02:55:49;;;;;;;83.80;39.40;;;;;;;-0.54;99.48;99445.41;425767;1280;143117;-65
2022/11/25 03:05:55;;;;;;;79.00;35.90;;;;;;;-0.55;99.61;99445.79;418669;1279;142877;-65
2022/11/25 03:16:01;;;;;;;90.90;38.70;;;;;;;-0.60;99.66;99459.14;418515;1279;142591;-65
2022/11/25 03:26:08;;;;;;;70.40;34.20;;;;;;;-0.63;99.87;99460.40;424122;1279;142341;-66
2022/11/25 03:36:13;;;;;;;83.40;37.90;;;;;;;-0.65;99.99;99470.40;418849;1279;141416;-66
2022/11/25 03:46:19;;;;;;;82.20;37.20;;;;;;;-0.58;99.96;99470.95;431221;1286;200257;-63
2022/11/25 03:56:25;;;;;;;93.80;41.80;;;;;;;-0.53;100.00;99471.55;418593;1287;142354;-64
2022/11/25 04:06:31;;;;;;;78.60;33.30;;;;;;;-0.48;100.00;99472.14;419908;1280;143656;-65
2022/11/25 04:16:37;;;;;;;86.10;40.30;;;;;;;-0.47;100.00;99468.85;427300;1286;142933;-65
2022/11/25 04:26:43;;;;;;;83.90;39.80;;;;;;;-0.45;100.00;99471.73;432473;1286;202181;-65
2022/11/25 04:36:48;;;;;;;70.90;37.80;;;;;;;-0.43;100.00;99477.35;420555;1279;143626;-64
2022/11/25 04:46:54;;;;;;;84.60;41.10;;;;;;;-0.39;100.00;99480.39;427425;1279;142069;-65
2022/11/25 04:57:00;;;;;;;90.60;39.70;;;;;;;-0.36;100.00;99485.81;420321;1279;143141;-63
2022/11/25 05:07:05;;;;;;;74.90;36.30;;;;;;;-0.36;100.00;99492.00;423448;1285;143285;-64
2022/11/25 05:17:15;;;;;;;71.50;32.90;;;;;;;-0.40;100.00;99503.11;420509;1279;142010;-66
2022/11/25 05:27:21;;;;;;;77.10;38.20;;;;;;;-0.41;100.00;99508.44;420650;1278;143518;-65
2022/11/25 05:37:27;;;;;;;70.40;35.60;;;;;;;-0.40;100.00;99515.31;423152;1280;143050;-65
2022/11/25 05:47:33;;;;;;;68.20;33.70;;;;;;;-0.39;100.00;99512.71;418915;1287;143306;-64
2022/11/25 05:57:38;;;;;;;66.30;35.50;;;;;;;-0.39;100.00;99528.70;417404;1279;142623;-65
2022/11/25 06:07:44;;;;;;;75.90;37.50;;;;;;;-0.36;100.00;99540.00;417735;1286;142327;-65
2022/11/25 06:17:50;;;;;;;52.00;28.00;;;;;;;-0.35;100.00;99548.77;418098;1286;143089;-65
2022/11/25 06:27:56;;;;;;;75.30;39.30;;;;;;;-0.32;100.00;99555.39;423414;1285;141892;-66
2022/11/25 06:38:17;;;;;;;84.00;39.60;;;;;;;-0.26;100.00;99569.23;420493;1285;143826;-65
2022/11/25 06:48:23;;;;;;;67.90;36.90;;;;;;;-0.19;100.00;99578.02;429589;1286;143298;-63
2022/11/25 06:58:29;;;;;;;64.40;34.10;;;;;;;-0.10;100.00;99579.41;432297;1290;143798;-64
2022/11/25 07:08:41;;;;;;;64.40;35.70;;;;;;;0.02;100.00;99579.50;433770;1287;143181;-65
2022/11/25 07:18:47;;;;;;;75.70;38.70;;;;;;;0.15;100.00;99578.35;431465;1272;142809;-64
2022/11/25 07:28:57;;;;;;;48.70;27.70;;;;;;;0.32;100.00;99586.27;434468;1289;142392;-64
2022/11/25 07:39:06;;;;;;;63.60;34.30;;;;;;;0.44;100.00;99592.71;425702;1283;143085;-64
2022/11/25 07:49:14;;;;;;;72.70;38.60;;;;;;;0.61;100.00;99597.17;434637;1294;142713;-64
2022/11/25 07:59:21;;;;;;;64.90;37.30;;;;;;;0.87;99.92;99593.14;426820;1294;143699;-64
2022/11/25 08:09:27;;;;;;;66.80;40.70;;;;;;;1.12;99.62;99592.50;433855;1295;143674;-66
2022/11/25 08:19:33;;;;;;;75.90;46.10;;;;;;;1.37;99.46;99599.31;434731;1288;141952;-65
2022/11/25 08:29:39;;;;;;;85.20;47.50;;;;;;;1.47;99.07;99607.68;434089;1280;143108;-67
2022/11/25 08:39:46;;;;;;;79.70;45.30;;;;;;;1.62;98.86;99610.73;429711;1287;197295;-66
2022/11/25 08:49:59;;;;;;;97.60;51.90;;;;;;;1.76;98.55;99614.84;418456;1287;142181;-68
2022/11/25 09:00:08;;;;;;;82.70;48.30;;;;;;;1.87;98.12;99623.67;418269;1296;142000;-64
2022/11/25 09:10:17;;;;;;;73.30;45.20;;;;;;;1.81;97.84;99630.39;434561;1289;142979;-65
2022/11/25 09:20:23;;;;;;;80.40;46.10;;;;;;;1.85;97.69;99638.05;434547;1289;143506;-64
2022/11/25 09:30:29;;;;;;;68.90;42.70;;;;;;;2.00;97.55;99636.46;433953;1295;142475;-65
2022/11/25 09:40:42;;;;;;;74.60;46.30;;;;;;;2.20;97.26;99636.58;434789;1292;142584;-65
2022/11/25 09:51:00;;;;;;;65.40;44.20;;;;;;;2.37;96.93;99641.45;430331;1286;142018;-64
2022/11/25 10:01:13;;;;;;;68.00;42.70;;;;;;;2.27;96.37;99641.05;434656;1287;142465;-65
2022/11/25 10:11:34;;;;;;;65.00;40.20;;;;;;;2.18;96.47;99642.16;434642;1289;141589;-66
2022/11/25 10:21:41;;;;;;;61.50;38.70;;;;;;;2.26;96.60;99645.59;434363;1293;198193;-66
2022/11/25 10:31:47;;;;;;;61.70;39.40;;;;;;;2.45;96.66;99646.08;434922;1285;145321;-65
2022/11/25 10:41:58;;;;;;;65.40;41.80;;;;;;;2.75;96.35;99637.38;434114;1286;142810;-64
2022/11/25 10:52:11;;;;;;;65.10;41.80;;;;;;;2.87;96.02;99645.83;430677;1289;142378;-64
2022/11/25 11:02:24;;;;;;;61.80;40.40;;;;;;;2.85;95.55;99648.47;434802;1292;141564;-65
2022/11/25 11:12:30;;;;;;;61.20;38.80;;;;;;;2.86;95.41;99640.34;434164;1292;142207;-65
2022/11/25 11:22:45;;;;;;;63.90;40.50;;;;;;;2.87;95.52;99643.23;434781;1292;142850;-64
2022/11/25 11:33:00;;;;;;;59.60;37.50;;;;;;;2.87;95.57;99645.64;428238;1285;145520;-66
2022/11/25 11:43:23;;;;;;;66.60;41.70;;;;;;;2.96;95.66;99644.18;434417;1287;143983;-64
2022/11/25 11:53:36;;;;;;;64.50;41.40;;;;;;;2.98;95.38;99647.40;434698;1288;142463;-64
2022/11/25 12:03:55;;;;;;;64.40;42.20;;;;;;;2.99;95.58;99650.82;434358;1279;142709;-64
2022/11/25 12:14:06;;;;;;;54.70;35.00;;;;;;;3.13;95.35;99651.74;434576;1286;144933;-63
2022/11/25 12:24:19;;;;;;;55.70;35.70;;;;;;;3.12;95.14;99653.52;433813;1289;141683;-64
2022/11/25 12:34:34;;;;;;;53.90;31.50;;;;;;;2.88;95.09;99658.60;434577;1286;143019;-66
2022/11/25 12:44:50;;;;;;;62.20;34.40;;;;;;;2.43;94.55;99668.05;433905;1287;142655;-66
2022/11/25 12:55:08;;;;;;;61.90;35.20;;;;;;;2.10;95.23;99673.46;431703;1283;142170;-64
2022/11/25 13:05:35;;;;;;;63.70;34.80;;;;;;;1.85;95.65;99672.76;434794;1292;145015;-64
2022/11/25 13:15:47;;;;;;;58.70;31.70;;;;;;;1.64;96.18;99677.48;434204;1289;210576;-63
2022/11/25 13:26:15;;;;;;;63.00;34.60;;;;;;;1.48;96.81;99686.47;434699;1286;143316;-63
2022/11/25 13:36:22;;;;;;;58.80;31.20;;;;;;;1.54;97.41;99689.96;432732;1295;142968;-64
2022/11/25 13:46:34;;;;;;;;;;;;;;;1.58;97.82;99694.36;431291;1285;142147;-65
2022/11/25 13:56:40;;;;;;;55.30;33.20;;;;;;;1.56;98.15;99686.29;422074;1286;129281;-65
2022/11/25 14:07:16;;;;;;;64.40;37.30;;;;;;;1.50;98.44;99688.00;423228;1287;155476;-63
2022/11/25 14:17:47;;;;;;;71.80;37.10;;;;;;;1.37;98.73;99695.90;417597;1287;142355;-63
2022/11/25 14:28:03;;;;;;;87.60;43.10;;;;;;;1.34;99.34;99708.56;434240;1286;142091;-64
2022/11/25 14:38:16;;;;;;;85.10;46.60;;;;;;;1.33;99.43;99715.31;434757;1286;142520;-65
2022/11/25 14:48:26;;;;;;;89.80;50.90;;;;;;;1.30;99.56;99715.20;434049;1288;142227;-64
2022/11/25 14:58:32;;;;;;;90.20;51.10;;;;;;;1.34;99.98;99722.35;434850;1278;143657;-64
2022/11/25 15:08:42;;;;;;;85.40;44.20;;;;;;;1.33;99.96;99721.86;430913;1289;142850;-64
2022/11/25 15:18:51;;;;;;;75.60;41.30;;;;;;;1.22;99.93;99725.23;434150;1287;209786;-64
2022/11/25 15:28:59;;;;;;;80.30;42.00;;;;;;;1.14;100.00;99729.55;434806;1285;142636;-64
2022/11/25 15:39:23;;;;;;;65.80;37.50;;;;;;;1.14;100.00;99728.89;434191;1286;161738;-64
2022/11/25 15:49:29;;;;;;;71.50;39.70;;;;;;;1.10;100.00;99733.60;434794;1287;142852;-64
2022/11/25 15:59:46;;;;;;;64.90;36.70;;;;;;;1.08;100.00;99740.20;434706;1285;142086;-64
2022/11/25 16:09:53;;;;;;;58.40;30.10;;;;;;;1.06;100.00;99742.85;428694;1279;209942;-64
2022/11/25 16:19:58;;;;;;;68.00;36.60;;;;;;;1.06;100.00;99743.36;434895;1289;142618;-64
2022/11/25 16:30:19;;;;;;;76.80;41.60;;;;;;;1.12;100.00;99749.42;434139;1286;144812;-64
2022/11/25 16:40:26;;;;;;;82.40;43.10;;;;;;;1.19;100.00;99749.77;434796;1286;143769;-64
2022/11/25 16:50:32;;;;;;;76.60;40.50;;;;;;;1.25;100.00;99749.14;434800;1282;200931;-65
2022/11/25 17:00:37;;;;;;;79.60;44.00;;;;;;;1.22;100.00;99749.20;434067;1292;195766;-65
2022/11/25 17:10:44;;;;;;;72.90;40.80;;;;;;;1.17;100.00;99756.02;434846;1279;196675;-63
2022/11/25 17:20:49;;;;;;;;;;;;;;;1.11;100.00;99755.30;421277;1286;143699;-63
2022/11/25 17:30:54;;;;;;;66.80;36.80;;;;;;;1.06;100.00;99769.37;420868;1279;131082;-63
2022/11/25 17:41:00;;;;;;;64.30;38.20;;;;;;;1.04;100.00;99773.57;434720;1287;143571;-63
2022/11/25 17:51:06;;;;;;;77.00;39.10;;;;;;;1.10;100.00;99778.77;434057;1281;141773;-65
2022/11/25 18:01:12;;;;;;;86.20;42.50;;;;;;;1.23;100.00;99782.98;434815;1278;143212;-64
2022/11/25 18:11:21;;;;;;;85.60;41.80;;;;;;;1.35;100.00;99786.86;434760;1281;142815;-64
2022/11/25 18:21:27;;;;;;;68.40;35.70;;;;;;;1.42;100.00;99800.33;423627;1292;143707;-64
2022/11/25 18:31:33;;;;;;;94.60;48.90;;;;;;;1.42;100.00;99803.59;434717;1288;142983;-64
2022/11/25 18:41:40;;;;;;;99.00;50.00;;;;;;;1.43;100.00;99807.20;434757;1289;143106;-63
2022/11/25 18:51:46;;;;;;;107.70;52.20;;;;;;;1.49;100.00;99813.61;434309;1279;199536;-63
2022/11/25 19:01:52;;;;;;;97.80;52.10;;;;;;;1.52;100.00;99821.48;434688;1286;144101;-63
2022/11/25 19:11:57;;;;;;;113.10;62.00;;;;;;;1.56;100.00;99821.74;433985;1295;143280;-63
2022/11/25 19:22:03;;;;;;;118.10;60.00;;;;;;;1.60;100.00;99825.27;434616;1284;145872;-63
2022/11/25 19:32:19;;;;;;;125.10;71.50;;;;;;;1.66;100.00;99826.16;434760;1285;142856;-63
2022/11/25 19:42:27;;;;;;;140.70;77.00;;;;;;;1.64;100.00;99835.71;434134;1286;143882;-64
2022/11/25 19:52:36;;;;;;;120.40;70.50;;;;;;;1.63;100.00;99846.45;434859;1286;143616;-63
2022/11/25 20:02:43;;;;;;;139.10;73.10;;;;;;;1.66;100.00;99845.33;433989;1281;143347;-63
2022/11/25 20:12:49;;;;;;;119.30;67.70;;;;;;;1.68;100.00;99849.94;434654;1288;143317;-64
2022/11/25 20:22:59;;;;;;;115.30;66.30;;;;;;;1.72;100.00;99860.89;434758;1278;144005;-64
2022/11/25 20:33:05;;;;;;;149.50;75.80;;;;;;;1.72;100.00;99872.10;434057;1288;143466;-62
2022/11/25 20:43:21;;;;;;;157.80;83.90;;;;;;;1.73;100.00;99884.88;434819;1295;143722;-64
2022/11/25 20:53:29;;;;;;;137.40;76.20;;;;;;;1.77;100.00;99890.64;434714;1283;142734;-64
2022/11/25 21:03:35;;;;;;;135.40;72.50;;;;;;;1.82;100.00;99890.34;428483;1285;145281;-62
2022/11/25 21:13:40;;;;;;;186.20;93.60;;;;;;;1.81;100.00;99898.84;422058;1286;141503;-65
2022/11/25 21:23:48;;;;;;;128.90;77.30;;;;;;;1.83;100.00;99905.19;434013;1286;143028;-63
2022/11/25 21:33:58;;;;;;;122.40;65.20;;;;;;;1.82;100.00;99902.42;434748;1289;143022;-63
2022/11/25 21:44:06;;;;;;;129.60;64.10;;;;;;;1.83;100.00;99911.73;434976;1286;144002;-64
2022/11/25 21:54:12;;;;;;;116.10;58.20;;;;;;;1.86;100.00;99920.31;434005;1287;144184;-63
2022/11/25 22:04:19;;;;;;;151.60;68.40;;;;;;;1.85;100.00;99931.88;434815;1286;144318;-63
2022/11/25 22:14:33;;;;;;;151.20;72.90;;;;;;;1.87;100.00;99939.80;434168;1280;200437;-64
2022/11/25 22:24:38;;;;;;;147.00;67.90;;;;;;;1.91;100.00;99939.37;434005;1288;143334;-64
2022/11/25 22:34:45;;;;;;;139.90;65.60;;;;;;;1.92;100.00;99945.71;434812;1286;142967;-64
2022/11/25 22:44:51;;;;;;;144.10;74.30;;;;;;;1.92;100.00;99945.04;434203;1282;144497;-63
2022/11/25 22:54:59;;;;;;;103.90;57.40;;;;;;;1.95;100.00;99942.21;434835;1286;142927;-64
2022/11/25 23:05:15;;;;;;;98.50;54.90;;;;;;;2.03;100.00;99949.11;434795;1285;143174;-64
2022/11/25 23:15:22;;;;;;;103.60;58.20;;;;;;;2.07;100.00;99958.69;425355;1295;142901;-63
2022/11/25 23:25:28;;;;;;;123.00;66.70;;;;;;;2.04;100.00;99962.21;418103;1286;145758;-63
2022/11/25 23:35:37;;;;;;;126.80;71.20;;;;;;;2.03;100.00;99970.16;434775;1286;143298;-64
2022/11/25 23:45:49;;;;;;;129.80;70.10;;;;;;;2.05;100.00;99973.06;434462;1285;210808;-64
2022/11/25 23:55:55;;;;;;;117.30;62.10;;;;;;;2.13;100.00;99977.20;434810;1286;142549;-64
